Time;durP1;ratioP1;P1;durP2;ratioP2;P2;SDS_P1;SDS_P2;PMS_P1;PMS_P2;Temp;Humidity;BMP_temperature;BMP_pressure;BME280_temperature;BME280_humidity;BME280_pressure;Samples;Min_cycle;Max_cycle;Signal;HPM_P1;HPM_P2
2023/04/13 00:00:14;;;;;;;2.47;2.27;;;7.30;99.90;;;;;;4908818;29;20685;-77
2023/04/13 00:02:41;;;;;;;2.70;2.60;;;7.30;99.90;;;;;;4915164;29;20694;-76
2023/04/13 00:05:09;;;;;;;3.10;3.00;;;7.30;99.90;;;;;;4915014;29;20226;-77
2023/04/13 00:07:37;;;;;;;3.00;2.80;;;7.20;99.90;;;;;;4913967;29;20222;-76
2023/04/13 00:10:05;;;;;;;2.20;2.10;;;7.20;99.90;;;;;;4912707;29;20353;-77
2023/04/13 00:12:33;;;;;;;2.83;2.50;;;7.30;99.90;;;;;;4912171;29;20857;-76
2023/04/13 00:14:59;;;;;;;2.60;2.50;;;7.30;99.90;;;;;;4914133;29;20218;-77
2023/04/13 00:17:28;;;;;;;1.80;1.80;;;7.30;99.90;;;;;;4916019;29;20246;-77
2023/04/13 00:19:56;;;;;;;1.87;1.77;;;7.40;99.90;;;;;;4918282;29;20272;-77
2023/04/13 00:22:23;;;;;;;1.80;1.70;;;7.40;99.90;;;;;;4912937;29;20204;-76
2023/04/13 00:24:53;;;;;;;1.77;1.67;;;7.40;99.90;;;;;;4918581;29;20790;-76
2023/04/13 00:27:20;;;;;;;1.93;1.83;;;7.40;99.90;;;;;;4911861;29;20227;-77
2023/04/13 00:29:46;;;;;;;2.37;1.70;;;7.40;99.90;;;;;;4909761;29;20256;-77
2023/04/13 00:32:13;;;;;;;1.97;1.70;;;7.40;99.90;;;;;;4914084;29;20251;-77
2023/04/13 00:34:41;;;;;;;1.70;1.60;;;7.40;99.90;;;;;;4913391;29;20207;-77
2023/04/13 00:37:08;;;;;;;1.70;1.60;;;7.40;99.90;;;;;;4916249;29;20726;-77
2023/04/13 00:39:35;;;;;;;1.70;1.60;;;7.40;99.90;;;;;;4913978;29;20207;-77
2023/04/13 00:42:02;;;;;;;2.00;1.90;;;7.30;99.90;;;;;;4918465;29;20262;-77
2023/04/13 00:44:29;;;;;;;1.80;1.70;;;7.30;99.90;;;;;;4910689;29;20222;-77
2023/04/13 00:46:56;;;;;;;1.97;1.87;;;7.20;99.90;;;;;;4909561;29;20210;-77
2023/04/13 00:49:23;;;;;;;2.27;2.17;;;7.20;99.90;;;;;;4915027;29;20255;-77
2023/04/13 00:51:51;;;;;;;6.07;5.77;;;7.20;99.90;;;;;;4912630;29;20215;-77
2023/04/13 00:54:19;;;;;;;6.20;5.90;;;7.20;99.90;;;;;;4914835;29;20626;-77
2023/04/13 00:56:47;;;;;;;6.13;5.80;;;7.20;99.90;;;;;;4914882;29;20213;-77
2023/04/13 00:59:16;;;;;;;6.50;6.10;;;7.20;99.90;;;;;;4912090;29;20569;-77
2023/04/13 01:01:49;;;;;;;6.13;5.80;;;7.30;99.90;;;;;;4911611;29;20251;-77
2023/04/13 01:04:18;;;;;;;6.20;5.80;;;7.30;99.90;;;;;;4909482;29;20215;-76
2023/04/13 01:06:51;;;;;;;6.20;5.80;;;7.30;99.90;;;;;;4914361;29;20279;-77
2023/04/13 01:09:28;;;;;;;6.10;5.80;;;7.30;99.90;;;;;;4912726;29;20200;-77
2023/04/13 01:12:00;;;;;;;5.70;5.40;;;7.30;99.90;;;;;;4912507;29;20260;-77
2023/04/13 01:14:32;;;;;;;5.33;4.93;;;7.30;99.90;;;;;;4912688;29;20276;-77
2023/04/13 01:17:06;;;;;;;5.60;5.30;;;7.30;99.90;;;;;;4914381;29;20270;-77
2023/04/13 01:19:50;;;;;;;5.70;5.30;;;7.30;99.90;;;;;;4912900;29;20246;-78
2023/04/13 01:22:21;;;;;;;6.07;5.77;;;7.40;99.90;;;;;;4913340;29;20200;-77
2023/04/13 01:25:17;;;;;;;5.90;5.60;;;7.40;99.90;;;;;;4912462;29;20219;-76
2023/04/13 01:27:50;;;;;;;6.23;5.93;;;7.30;99.90;;;;;;4916170;29;20224;-77
2023/04/13 01:30:20;;;;;;;5.80;5.50;;;7.40;99.90;;;;;;4910789;29;20742;-76
2023/04/13 01:32:48;;;;;;;6.00;5.60;;;7.30;99.90;;;;;;4914453;29;20625;-76
2023/04/13 01:35:17;;;;;;;6.20;5.80;;;7.30;99.90;;;;;;4912400;29;20203;-77
2023/04/13 01:37:45;;;;;;;6.00;5.70;;;7.30;99.90;;;;;;4909175;29;20219;-77
2023/04/13 01:40:13;;;;;;;6.03;5.60;;;7.20;99.90;;;;;;4913378;29;20289;-77
2023/04/13 01:42:49;;;;;;;5.73;5.40;;;7.20;99.90;;;;;;4909098;29;20211;-77
2023/04/13 01:45:19;;;;;;;7.40;6.90;;;7.10;99.90;;;;;;4913389;29;20215;-77
2023/04/13 01:47:54;;;;;;;7.70;7.30;;;7.00;99.90;;;;;;4911571;29;20229;-76
2023/04/13 01:50:31;;;;;;;8.07;7.60;;;7.00;99.90;;;;;;4912233;29;20212;-77
2023/04/13 01:53:11;;;;;;;7.50;7.00;;;6.90;99.90;;;;;;4914673;29;20209;-78
2023/04/13 01:55:44;;;;;;;7.53;7.13;;;6.90;99.90;;;;;;4913098;29;20277;-77
2023/04/13 01:58:14;;;;;;;6.63;6.23;;;6.90;99.90;;;;;;4908652;29;20223;-77
2023/04/13 02:00:43;;;;;;;6.50;6.20;;;6.90;99.90;;;;;;4908848;29;20302;-77
2023/04/13 02:03:15;;;;;;;6.47;6.17;;;6.80;99.90;;;;;;4912222;29;20199;-77
2023/04/13 02:05:41;;;;;;;6.70;6.30;;;6.80;99.90;;;;;;4911743;29;20224;-77
2023/04/13 02:08:09;;;;;;;6.93;6.53;;;6.70;99.90;;;;;;4910456;29;20235;-77
2023/04/13 02:10:41;;;;;;;7.20;6.80;;;6.80;99.90;;;;;;4910357;29;20211;-77
2023/04/13 02:13:09;;;;;;;7.50;7.10;;;6.80;99.90;;;;;;4906140;29;20214;-77
2023/04/13 02:15:38;;;;;;;7.47;7.07;;;6.80;99.90;;;;;;4909894;29;20192;-76
2023/04/13 02:18:06;;;;;;;6.60;6.30;;;6.80;99.90;;;;;;4915299;29;20223;-77
2023/04/13 02:20:42;;;;;;;7.10;6.70;;;6.80;99.90;;;;;;4911814;29;20250;-77
2023/04/13 02:23:09;;;;;;;6.73;6.40;;;6.70;99.90;;;;;;4910572;29;20210;-77
2023/04/13 02:25:36;;;;;;;7.53;7.07;;;6.70;99.90;;;;;;4909684;29;20227;-77
2023/04/13 02:28:03;;;;;;;6.70;6.40;;;6.70;99.90;;;;;;4908983;29;20637;-77
2023/04/13 02:30:30;;;;;;;7.00;6.60;;;6.70;99.90;;;;;;4914126;29;20213;-77
2023/04/13 02:32:58;;;;;;;6.30;6.00;;;6.70;99.90;;;;;;4912497;29;20267;-77
2023/04/13 02:35:26;;;;;;;6.30;6.00;;;6.70;99.90;;;;;;4913904;29;20206;-77
2023/04/13 02:37:54;;;;;;;6.63;6.23;;;6.70;99.90;;;;;;4918777;29;20223;-76
2023/04/13 02:40:22;;;;;;;6.27;5.97;;;6.80;99.90;;;;;;4915355;29;20282;-77
2023/04/13 02:42:50;;;;;;;6.10;5.80;;;6.80;99.90;;;;;;4915050;29;20658;-76
2023/04/13 02:45:17;;;;;;;6.33;6.03;;;6.80;99.90;;;;;;4908486;29;20278;-77
2023/04/13 02:47:47;;;;;;;6.40;6.00;;;6.90;99.90;;;;;;4908132;29;20220;-77
2023/04/13 02:50:16;;;;;;;6.47;6.07;;;6.80;99.90;;;;;;4911475;29;20646;-76
2023/04/13 02:52:52;;;;;;;6.90;6.40;;;6.80;99.90;;;;;;4916028;29;20214;-79
2023/04/13 02:55:19;;;;;;;6.50;6.10;;;6.70;99.90;;;;;;4912154;29;20198;-79
2023/04/13 02:57:53;;;;;;;6.30;6.00;;;6.50;99.90;;;;;;4926376;29;20279;-80
2023/04/13 03:00:24;;;;;;;6.77;6.37;;;6.50;99.90;;;;;;4901081;29;20223;-80
2023/04/13 03:02:58;;;;;;;6.83;6.43;;;6.40;99.90;;;;;;4914036;29;20209;-82
2023/04/13 03:05:31;;;;;;;7.53;6.90;;;6.40;99.90;;;;;;4912863;29;20241;-81
2023/04/13 03:07:59;;;;;;;7.10;6.60;;;6.40;99.90;;;;;;4921087;29;20231;-80
2023/04/13 03:10:30;;;;;;;7.70;7.00;;;6.40;99.90;;;;;;4917967;29;20680;-81
2023/04/13 03:12:57;;;;;;;7.23;6.60;;;6.50;99.90;;;;;;4911389;29;20228;-81
2023/04/13 03:15:25;;;;;;;7.20;6.73;;;6.50;99.90;;;;;;4917833;29;20733;-79
2023/04/13 03:17:53;;;;;;;6.90;6.50;;;6.50;99.90;;;;;;4914954;29;20224;-79
2023/04/13 03:20:24;;;;;;;6.90;6.40;;;6.60;99.90;;;;;;4904920;29;20204;-80
2023/04/13 03:23:00;;;;;;;6.77;6.17;;;6.60;99.90;;;;;;4915475;29;20271;-79
2023/04/13 03:25:29;;;;;;;6.80;6.20;;;6.70;99.90;;;;;;4908802;29;20302;-80
2023/04/13 03:27:56;;;;;;;6.77;6.30;;;6.80;99.90;;;;;;4919127;29;20602;-79
2023/04/13 03:30:24;;;;;;;6.80;6.30;;;6.70;99.90;;;;;;4913123;29;20204;-80
2023/04/13 03:32:57;;;;;;;6.50;6.10;;;6.80;99.90;;;;;;4913947;29;20242;-79
2023/04/13 03:35:27;;;;;;;9.80;7.23;;;6.80;99.90;;;;;;4910873;29;20207;-79
2023/04/13 03:37:58;;;;;;;7.03;6.50;;;6.80;99.90;;;;;;4909934;29;20279;-79
2023/04/13 03:40:45;;;;;;;7.20;6.67;;;6.80;99.90;;;;;;4910122;29;20207;-76
2023/04/13 03:43:12;;;;;;;7.67;7.07;;;6.90;99.90;;;;;;4913523;29;20210;-77
2023/04/13 03:45:45;;;;;;;7.80;7.20;;;6.90;99.90;;;;;;4910459;29;20709;-77
2023/04/13 03:48:15;;;;;;;8.20;7.50;;;6.90;99.90;;;;;;4913525;29;20219;-76
2023/04/13 03:50:41;;;;;;;7.60;7.10;;;6.90;99.90;;;;;;4906513;29;20210;-77
2023/04/13 03:53:12;;;;;;;6.77;6.30;;;6.90;99.90;;;;;;4910466;29;20682;-77
2023/04/13 03:55:41;;;;;;;7.33;6.60;;;7.00;99.90;;;;;;4909695;29;20234;-77
2023/04/13 03:58:10;;;;;;;6.93;6.53;;;7.00;99.90;;;;;;4908257;29;20320;-77
2023/04/13 04:00:37;;;;;;;7.90;7.33;;;7.00;99.90;;;;;;4909745;29;20299;-76
2023/04/13 04:03:16;;;;;;;7.50;6.97;;;7.10;99.90;;;;;;4911216;29;20207;-76
2023/04/13 04:05:58;;;;;;;6.67;6.20;;;7.00;99.90;;;;;;4910840;29;20248;-76
2023/04/13 04:08:29;;;;;;;6.77;6.33;;;7.00;99.90;;;;;;4906630;29;20234;-76
2023/04/13 04:11:00;;;;;;;7.13;6.60;;;7.10;99.90;;;;;;4911799;29;20683;-76
2023/04/13 04:13:28;;;;;;;5.77;5.37;;;7.10;99.90;;;;;;4909228;29;20679;-77
2023/04/13 04:15:58;;;;;;;5.53;5.20;;;7.10;99.90;;;;;;4917279;29;20204;-76
2023/04/13 04:18:27;;;;;;;7.20;6.10;;;7.10;99.90;;;;;;4907983;29;20231;-77
2023/04/13 04:20:54;;;;;;;6.50;6.10;;;7.10;99.90;;;;;;4907636;29;20295;-76
2023/04/13 04:23:21;;;;;;;7.03;6.40;;;7.10;99.90;;;;;;4910467;29;20683;-76
2023/04/13 04:25:58;;;;;;;7.50;7.00;;;7.10;99.90;;;;;;4910479;29;20786;-76
2023/04/13 04:28:29;;;;;;;7.83;6.83;;;7.10;99.90;;;;;;4906301;29;20757;-77
2023/04/13 04:30:59;;;;;;;5.77;5.27;;;7.10;99.90;;;;;;4911002;29;20217;-76
2023/04/13 04:33:27;;;;;;;3.97;3.77;;;7.20;99.90;;;;;;4908227;29;20594;-77
2023/04/13 04:35:54;;;;;;;7.23;6.73;;;7.10;99.90;;;;;;4908057;29;20202;-77
2023/04/13 04:38:29;;;;;;;7.90;7.10;;;7.10;99.90;;;;;;4906750;29;20604;-77
2023/04/13 04:41:00;;;;;;;7.30;6.90;;;7.10;99.90;;;;;;4906197;29;20706;-76
2023/04/13 04:43:29;;;;;;;7.40;6.90;;;7.10;99.90;;;;;;4909076;29;20662;-77
2023/04/13 04:45:57;;;;;;;7.50;6.90;;;7.10;99.90;;;;;;4907230;29;20232;-77
2023/04/13 04:48:25;;;;;;;6.67;6.17;;;7.10;99.90;;;;;;4915246;29;20231;-77
2023/04/13 04:50:56;;;;;;;7.30;6.70;;;7.00;99.90;;;;;;4914030;29;20204;-77
2023/04/13 04:53:26;;;;;;;6.83;6.30;;;7.10;99.90;;;;;;4910950;29;20208;-76
2023/04/13 04:55:54;;;;;;;8.10;7.60;;;7.10;99.90;;;;;;4910628;29;20204;-76
2023/04/13 04:58:36;;;;;;;6.67;6.17;;;7.10;99.90;;;;;;4909576;29;20211;-76
2023/04/13 05:01:03;;;;;;;6.97;6.47;;;7.10;99.90;;;;;;4908934;29;20207;-76
2023/04/13 05:03:30;;;;;;;6.70;6.20;;;7.10;99.90;;;;;;4917844;29;20660;-76
2023/04/13 05:06:08;;;;;;;6.53;6.13;;;7.20;99.90;;;;;;4911958;29;20246;-76
2023/04/13 05:08:35;;;;;;;6.50;6.10;;;7.20;99.90;;;;;;4913447;29;20324;-77
2023/04/13 05:11:04;;;;;;;7.03;6.63;;;7.30;99.90;;;;;;4914287;29;20212;-76
2023/04/13 05:13:31;;;;;;;6.80;6.40;;;7.30;99.90;;;;;;4915708;29;20592;-77
2023/04/13 05:16:12;;;;;;;7.10;6.50;;;7.30;99.90;;;;;;4910344;29;20203;-77
2023/04/13 05:18:44;;;;;;;5.77;5.37;;;7.30;99.90;;;;;;4909433;29;20291;-77
2023/04/13 05:21:17;;;;;;;7.20;6.80;;;7.30;99.90;;;;;;4909047;29;20671;-76
2023/04/13 05:23:47;;;;;;;7.10;6.60;;;7.30;99.90;;;;;;4912389;29;20212;-77
2023/04/13 05:26:15;;;;;;;6.87;6.37;;;7.40;99.90;;;;;;4911851;29;20240;-77
2023/04/13 05:28:42;;;;;;;7.70;7.00;;;7.40;99.90;;;;;;4912315;29;20280;-77
2023/04/13 05:31:09;;;;;;;7.60;7.00;;;7.50;99.90;;;;;;4914911;29;20208;-76
2023/04/13 05:33:40;;;;;;;7.97;7.20;;;7.50;99.90;;;;;;4913312;29;20683;-77
2023/04/13 05:36:08;;;;;;;7.40;6.90;;;7.50;99.90;;;;;;4910115;29;20224;-76
2023/04/13 05:38:36;;;;;;;7.27;6.87;;;7.50;99.90;;;;;;4908486;29;20298;-77
2023/04/13 05:41:04;;;;;;;7.60;7.07;;;7.50;99.90;;;;;;4912597;29;20203;-77
2023/04/13 05:43:34;;;;;;;7.27;6.77;;;7.40;99.90;;;;;;4914940;29;20240;-76
2023/04/13 05:46:01;;;;;;;7.33;6.93;;;7.40;99.90;;;;;;4913451;29;20227;-77
2023/04/13 05:48:28;;;;;;;7.13;6.73;;;7.40;99.90;;;;;;4910237;29;20226;-77
2023/04/13 05:51:01;;;;;;;7.80;7.30;;;7.50;99.90;;;;;;4909295;29;20259;-76
2023/04/13 05:53:32;;;;;;;7.97;7.27;;;7.50;99.90;;;;;;4908724;29;20196;-76
2023/04/13 05:55:58;;;;;;;7.90;7.37;;;7.50;99.90;;;;;;4912215;29;20268;-76
2023/04/13 05:58:27;;;;;;;7.70;7.20;;;7.50;99.90;;;;;;4910874;29;20275;-77
2023/04/13 06:01:06;;;;;;;7.90;7.17;;;7.60;99.90;;;;;;4910636;29;20886;-76
2023/04/13 06:03:33;;;;;;;7.83;7.23;;;7.60;99.90;;;;;;4912243;29;20255;-76
2023/04/13 06:06:03;;;;;;;7.87;7.17;;;7.60;99.90;;;;;;4912750;29;20719;-77
2023/04/13 06:08:31;;;;;;;7.73;7.20;;;7.60;99.90;;;;;;4912311;29;20227;-76
2023/04/13 06:10:58;;;;;;;7.83;7.13;;;7.70;99.90;;;;;;4912291;29;20228;-76
2023/04/13 06:13:25;;;;;;;7.57;7.17;;;7.70;99.90;;;;;;4911079;29;20204;-77
2023/04/13 06:15:52;;;;;;;7.40;6.90;;;7.70;99.90;;;;;;4909923;29;20314;-76
2023/04/13 06:18:19;;;;;;;7.10;6.60;;;7.70;99.90;;;;;;4908239;29;20227;-77
2023/04/13 06:20:46;;;;;;;7.40;6.90;;;7.80;99.90;;;;;;4909641;29;20231;-77
2023/04/13 06:23:15;;;;;;;7.40;6.90;;;7.80;99.90;;;;;;4911896;29;20208;-76
2023/04/13 06:25:42;;;;;;;7.10;6.70;;;7.80;99.90;;;;;;4908600;29;20227;-77
2023/04/13 06:28:12;;;;;;;7.07;6.67;;;7.80;99.90;;;;;;4914052;29;20223;-79
2023/04/13 06:30:42;;;;;;;7.67;7.10;;;7.80;99.90;;;;;;4910388;29;20232;-76
2023/04/13 06:33:13;;;;;;;8.47;7.87;;;7.90;99.90;;;;;;4906886;29;20290;-76
2023/04/13 06:35:41;;;;;;;8.43;7.93;;;7.90;99.90;;;;;;4908185;29;20192;-76
2023/04/13 06:38:09;;;;;;;8.33;7.73;;;8.00;99.90;;;;;;4915075;29;20644;-78
2023/04/13 06:40:52;;;;;;;7.70;7.10;;;8.10;99.90;;;;;;4912355;29;20208;-76
2023/04/13 06:43:19;;;;;;;8.40;7.80;;;8.30;99.90;;;;;;4906447;29;20219;-76
2023/04/13 06:45:58;;;;;;;8.10;7.60;;;8.30;99.90;;;;;;4915505;29;20674;-76
2023/04/13 06:48:26;;;;;;;8.27;7.50;;;8.40;99.90;;;;;;4908223;29;20231;-77
2023/04/13 06:50:58;;;;;;;8.30;7.70;;;8.50;99.90;;;;;;4913233;29;20211;-77
2023/04/13 06:53:26;;;;;;;7.97;7.27;;;8.60;99.90;;;;;;4907712;29;20200;-76
2023/04/13 06:55:54;;;;;;;7.47;6.87;;;8.90;99.90;;;;;;4911811;29;20206;-77
2023/04/13 06:58:22;;;;;;;7.50;7.00;;;9.00;99.90;;;;;;4909958;29;20266;-76
2023/04/13 07:00:49;;;;;;;7.65;7.00;;;9.10;99.90;;;;;;4910868;29;20443;-77
2023/04/13 07:03:16;;;;;;;4.45;4.03;;;9.10;99.90;;;;;;4911649;29;20458;-76
2023/04/13 07:05:43;;;;;;;6.77;6.23;;;9.10;99.90;;;;;;4908980;29;20246;-77
2023/04/13 07:08:14;;;;;;;8.20;7.60;;;9.10;99.90;;;;;;4914262;29;20228;-76
2023/04/13 07:10:43;;;;;;;5.30;4.17;;;9.10;99.90;;;;;;4906329;29;20295;-76
2023/04/13 07:13:19;;;;;;;8.10;7.40;;;9.10;99.90;;;;;;4910207;29;20207;-77
2023/04/13 07:15:47;;;;;;;4.03;3.63;;;9.10;99.90;;;;;;4908832;29;20451;-76
2023/04/13 07:18:14;;;;;;;3.07;2.80;;;9.00;99.90;;;;;;4908787;29;20260;-76
2023/04/13 07:20:40;;;;;;;6.50;6.00;;;9.10;99.90;;;;;;4911170;29;20208;-77
2023/04/13 07:23:09;;;;;;;8.60;7.90;;;9.10;99.90;;;;;;4911892;29;20203;-77
2023/04/13 07:25:37;;;;;;;7.50;6.80;;;9.10;99.90;;;;;;4906703;29;20458;-77
2023/04/13 07:28:06;;;;;;;5.47;2.57;;;9.10;99.90;;;;;;4906746;29;20605;-76
2023/04/13 07:30:34;;;;;;;5.30;4.80;;;9.20;99.90;;;;;;4910616;29;20204;-77
2023/04/13 07:33:01;;;;;;;8.07;7.37;;;9.30;99.90;;;;;;4909172;29;20208;-77
2023/04/13 07:35:28;;;;;;;3.47;2.33;;;9.40;99.90;;;;;;4901293;29;20282;-77
2023/04/13 07:37:56;;;;;;;7.57;6.67;;;9.40;99.90;;;;;;4908766;29;20224;-76
2023/04/13 07:40:23;;;;;;;8.00;7.30;;;9.40;99.90;;;;;;4911666;29;20208;-77
2023/04/13 07:42:54;;;;;;;7.50;6.80;;;9.30;99.90;;;;;;4909481;29;20762;-76
2023/04/13 07:45:22;;;;;;;7.83;7.13;;;9.20;99.90;;;;;;4909392;29;20212;-77
2023/04/13 07:47:52;;;;;;;7.23;6.63;;;9.20;99.90;;;;;;4912635;29;20820;-77
2023/04/13 07:50:19;;;;;;;7.10;6.50;;;9.20;99.90;;;;;;4909535;29;20228;-77
2023/04/13 07:52:47;;;;;;;7.40;6.70;;;9.20;99.90;;;;;;4907478;29;20575;-77
2023/04/13 07:55:16;;;;;;;8.03;7.40;;;9.20;99.90;;;;;;4908135;29;20276;-76
2023/04/13 07:57:47;;;;;;;8.37;7.70;;;9.20;99.90;;;;;;4909274;29;20313;-77
2023/04/13 08:00:17;;;;;;;8.43;7.67;;;9.30;99.90;;;;;;4910916;29;20203;-77
2023/04/13 08:02:47;;;;;;;7.70;7.10;;;9.40;99.90;;;;;;4910828;29;20201;-77
2023/04/13 08:05:20;;;;;;;8.47;7.73;;;9.50;99.90;;;;;;4912395;29;20215;-76
2023/04/13 08:07:48;;;;;;;8.33;7.63;;;9.60;99.90;;;;;;4913753;29;20322;-78
2023/04/13 08:10:16;;;;;;;7.43;4.67;;;9.70;99.90;;;;;;4908290;29;20675;-77
2023/04/13 08:12:43;;;;;;;8.10;7.50;;;9.80;99.90;;;;;;4908546;29;20208;-78
2023/04/13 08:15:11;;;;;;;3.80;3.47;;;9.90;99.90;;;;;;4911759;29;20206;-78
2023/04/13 08:17:38;;;;;;;7.00;6.40;;;10.10;99.90;;;;;;4911183;29;20233;-76
2023/04/13 08:20:07;;;;;;;6.33;5.53;;;10.50;99.90;;;;;;4910743;29;20220;-80
2023/04/13 08:22:36;;;;;;;4.50;4.20;;;10.90;99.90;;;;;;4917405;29;20254;-79
2023/04/13 08:25:05;;;;;;;3.80;3.50;;;11.10;99.90;;;;;;4914006;29;20204;-79
2023/04/13 08:27:33;;;;;;;3.83;2.50;;;11.30;99.90;;;;;;4910439;29;20245;-78
2023/04/13 08:30:00;;;;;;;3.70;2.67;;;11.40;99.90;;;;;;4915562;29;20202;-80
2023/04/13 08:32:34;;;;;;;6.07;2.97;;;11.30;99.90;;;;;;4912651;29;20214;-80
2023/04/13 08:35:05;;;;;;;4.07;2.50;;;11.40;99.90;;;;;;4919044;29;20212;-79
2023/04/13 08:37:33;;;;;;;4.03;2.40;;;11.40;99.90;;;;;;4909966;29;20251;-80
2023/04/13 08:40:06;;;;;;;5.27;2.40;;;11.30;99.90;;;;;;4914809;29;20271;-79
2023/04/13 08:42:34;;;;;;;4.10;2.40;;;11.30;99.90;;;;;;4912955;29;20641;-79
2023/04/13 08:45:02;;;;;;;4.30;2.90;;;11.30;99.90;;;;;;4917112;29;20214;-78
2023/04/13 08:47:30;;;;;;;6.00;2.43;;;11.30;99.90;;;;;;4917283;29;20282;-77
2023/04/13 08:49:58;;;;;;;4.50;3.47;;;11.40;99.90;;;;;;4931527;29;20197;-79
2023/04/13 08:52:53;;;;;;;3.67;2.43;;;11.60;99.90;;;;;;4911231;29;20215;-80
2023/04/13 08:55:23;;;;;;;5.17;3.73;;;11.60;99.90;;;;;;4915750;29;20208;-79
2023/04/13 08:57:53;;;;;;;4.53;3.60;;;11.70;99.90;;;;;;4912498;29;20868;-79
2023/04/13 09:00:22;;;;;;;4.53;3.50;;;11.60;99.90;;;;;;4911978;29;20209;-79
2023/04/13 09:02:57;;;;;;;5.23;3.47;;;11.70;99.90;;;;;;4911347;29;20204;-79
2023/04/13 09:05:26;;;;;;;4.30;3.13;;;11.90;99.90;;;;;;4910329;29;20251;-79
2023/04/13 09:07:57;;;;;;;5.57;3.40;;;12.50;99.90;;;;;;4911757;29;20774;-79
2023/04/13 09:10:26;;;;;;;8.93;3.23;;;13.00;99.90;;;;;;4912192;29;20198;-80
2023/04/13 09:12:53;;;;;;;4.20;2.30;;;13.60;99.90;;;;;;4914213;29;20198;-79
2023/04/13 09:15:20;;;;;;;5.47;3.50;;;13.80;99.90;;;;;;4910358;29;20208;-79
2023/04/13 09:18:16;;;;;;;6.93;3.23;;;13.90;99.90;;;;;;4902925;29;20297;-79
2023/04/13 09:20:57;;;;;;;3.77;2.80;;;13.80;99.90;;;;;;4912764;29;20214;-80
2023/04/13 09:23:24;;;;;;;4.17;2.40;;;13.90;99.90;;;;;;4912636;29;20210;-80
2023/04/13 09:26:04;;;;;;;4.83;2.27;;;13.70;99.90;;;;;;4914999;29;20205;-79
2023/04/13 09:28:31;;;;;;;4.77;2.73;;;13.30;99.90;;;;;;4915748;29;20254;-77
2023/04/13 09:31:03;;;;;;;4.03;2.60;;;13.30;99.90;;;;;;4913452;29;20211;-77
2023/04/13 09:33:34;;;;;;;4.20;2.77;;;13.30;99.90;;;;;;4914921;29;20215;-76
2023/04/13 09:36:10;;;;;;;3.47;3.13;;;13.40;99.90;;;;;;4913638;29;20216;-76
2023/04/13 09:38:36;;;;;;;6.67;3.00;;;13.70;99.90;;;;;;4907761;29;20227;-76
2023/04/13 09:41:06;;;;;;;4.67;3.33;;;13.80;99.90;;;;;;4913938;29;20714;-77
2023/04/13 09:43:37;;;;;;;5.03;3.60;;;14.10;99.90;;;;;;4918602;29;20213;-76
2023/04/13 09:46:04;;;;;;;6.57;3.10;;;14.60;99.90;;;;;;4913805;29;20235;-76
2023/04/13 09:48:32;;;;;;;3.83;2.37;;;15.20;99.90;;;;;;4912963;29;20629;-78
2023/04/13 09:51:00;;;;;;;5.63;2.33;;;15.50;99.90;;;;;;4909924;29;20207;-79
2023/04/13 09:53:28;;;;;;;4.50;2.50;;;15.40;99.90;;;;;;4909210;29;20209;-79
2023/04/13 09:55:59;;;;;;;4.10;2.37;;;15.40;99.90;;;;;;4917859;29;20200;-78
2023/04/13 09:58:28;;;;;;;4.40;2.60;;;15.20;99.90;;;;;;4909349;29;20223;-76
2023/04/13 10:00:55;;;;;;;6.57;2.70;;;15.00;99.90;;;;;;4916761;29;20271;-79
2023/04/13 10:03:22;;;;;;;7.87;3.10;;;14.70;99.90;;;;;;4911569;29;20231;-78
2023/04/13 10:05:49;;;;;;;5.57;2.53;;;14.60;99.90;;;;;;4911292;29;20254;-78
2023/04/13 10:08:17;;;;;;;4.30;2.40;;;14.60;99.90;;;;;;4909760;29;20241;-78
2023/04/13 10:10:44;;;;;;;5.13;2.20;;;14.50;99.90;;;;;;4907970;29;20199;-80
2023/04/13 10:13:15;;;;;;;4.13;2.27;;;14.80;99.90;;;;;;4912794;29;20208;-80
2023/04/13 10:16:08;;;;;;;5.53;2.30;;;15.10;99.90;;;;;;4906386;29;20199;-80
2023/04/13 10:18:47;;;;;;;7.00;2.50;;;15.60;99.90;;;;;;4906981;29;20236;-80
2023/04/13 10:21:15;;;;;;;4.10;2.33;;;15.70;99.90;;;;;;4908779;29;20196;-80
2023/04/13 10:23:42;;;;;;;4.23;2.20;;;15.90;99.90;;;;;;4912267;29;20207;-80
2023/04/13 10:26:09;;;;;;;5.90;2.50;;;15.80;99.90;;;;;;4908566;29;20259;-80
2023/04/13 10:28:43;;;;;;;5.50;2.70;;;15.00;99.90;;;;;;4913724;29;20240;-80
2023/04/13 10:31:11;;;;;;;5.93;2.87;;;14.20;99.90;;;;;;4909567;29;20203;-79
2023/04/13 10:33:47;;;;;;;5.80;3.10;;;13.70;99.90;;;;;;4911691;29;20298;-80
2023/04/13 10:36:14;;;;;;;7.63;3.50;;;13.20;99.90;;;;;;4909843;29;20215;-80
2023/04/13 10:38:45;;;;;;;5.23;3.40;;;12.70;99.90;;;;;;4914563;29;20287;-80
2023/04/13 10:41:23;;;;;;;4.53;3.17;;;12.50;99.90;;;;;;4910213;29;20202;-80
2023/04/13 10:44:00;;;;;;;4.47;2.90;;;12.40;99.90;;;;;;4908343;29;20209;-79
2023/04/13 10:46:28;;;;;;;6.90;2.87;;;12.60;99.90;;;;;;4911558;29;20230;-78
2023/04/13 10:48:57;;;;;;;5.30;3.30;;;12.80;99.90;;;;;;4908658;29;20777;-78
2023/04/13 10:51:24;;;;;;;6.47;3.40;;;13.10;99.90;;;;;;4912537;29;20206;-78
2023/04/13 10:53:51;;;;;;;3.60;2.93;;;13.40;99.90;;;;;;4910247;29;20213;-79
2023/04/13 10:56:19;;;;;;;2.80;2.20;;;13.70;99.90;;;;;;4913686;29;20689;-79
2023/04/13 10:58:52;;;;;;;8.57;4.30;;;13.90;99.90;;;;;;4910389;29;20231;-79
2023/04/13 11:01:19;;;;;;;6.53;3.67;;;14.10;99.90;;;;;;4913068;29;20218;-78
2023/04/13 11:03:48;;;;;;;8.43;3.10;;;14.20;99.90;;;;;;4910333;29;20198;-79
2023/04/13 11:06:15;;;;;;;7.00;3.90;;;14.10;99.90;;;;;;4912228;29;20203;-79
2023/04/13 11:08:42;;;;;;;5.57;2.87;;;13.80;99.90;;;;;;4911180;29;20228;-78
2023/04/13 11:11:11;;;;;;;6.37;3.63;;;13.50;99.90;;;;;;4905548;29;20686;-79
2023/04/13 11:13:44;;;;;;;4.10;2.40;;;13.40;99.90;;;;;;4912284;29;20652;-79
2023/04/13 11:16:12;;;;;;;3.90;2.30;;;13.30;99.90;;;;;;4904851;29;20295;-79
2023/04/13 11:18:40;;;;;;;4.67;3.00;;;13.40;99.90;;;;;;4914051;29;20236;-79
2023/04/13 11:21:15;;;;;;;3.00;2.80;;;13.70;99.90;;;;;;4909876;29;20764;-78
2023/04/13 11:23:42;;;;;;;4.00;2.70;;;13.90;99.90;;;;;;4909742;29;20285;-80
2023/04/13 11:26:09;;;;;;;3.13;2.63;;;14.10;99.90;;;;;;4907932;29;20235;-80
2023/04/13 11:28:39;;;;;;;2.70;1.90;;;14.20;99.90;;;;;;4908070;29;20229;-79
2023/04/13 11:31:06;;;;;;;3.93;2.73;;;14.30;99.90;;;;;;4916706;29;20275;-82
2023/04/13 11:33:34;;;;;;;4.17;2.73;;;14.40;99.90;;;;;;4909214;29;20216;-82
2023/04/13 11:36:02;;;;;;;6.10;3.20;;;14.40;99.90;;;;;;4912337;29;20200;-82
2023/04/13 11:38:32;;;;;;;3.30;2.30;;;14.40;99.90;;;;;;4906821;29;20213;-76
2023/04/13 11:41:03;;;;;;;5.47;2.80;;;14.50;99.90;;;;;;4912455;29;20208;-75
2023/04/13 11:43:30;;;;;;;3.20;2.67;;;14.50;99.90;;;;;;4906911;29;20759;-77
2023/04/13 11:45:57;;;;;;;5.17;2.80;;;14.40;99.90;;;;;;4914434;29;20230;-77
2023/04/13 11:48:25;;;;;;;3.20;2.33;;;14.50;99.90;;;;;;4907293;29;20276;-77
2023/04/13 11:50:52;;;;;;;3.13;2.23;;;14.40;99.90;;;;;;4906412;29;20207;-76
2023/04/13 11:53:19;;;;;;;6.53;3.00;;;14.40;99.90;;;;;;4908224;29;20256;-76
2023/04/13 11:55:47;;;;;;;6.93;2.70;;;14.40;99.90;;;;;;4907240;29;20305;-77
2023/04/13 11:58:17;;;;;;;3.40;2.80;;;14.30;99.90;;;;;;4914205;29;20220;-77
2023/04/13 12:00:45;;;;;;;4.37;3.00;;;14.50;99.90;;;;;;4915879;29;20212;-77
2023/04/13 12:03:16;;;;;;;5.67;2.50;;;14.50;99.90;;;;;;4914695;29;20636;-77
2023/04/13 12:05:44;;;;;;;5.07;2.73;;;14.50;99.90;;;;;;4909970;29;20203;-77
2023/04/13 12:08:22;;;;;;;4.23;3.00;;;14.60;99.90;;;;;;4915393;29;20341;-77
2023/04/13 12:10:57;;;;;;;6.23;3.07;;;14.40;99.90;;;;;;4912880;29;20215;-77
2023/04/13 12:13:25;;;;;;;5.53;2.47;;;14.50;99.90;;;;;;4915996;29;20733;-77
2023/04/13 12:15:52;;;;;;;4.67;2.93;;;14.60;99.90;;;;;;4908616;29;20204;-77
2023/04/13 12:18:20;;;;;;;4.60;2.63;;;14.50;99.90;;;;;;4912079;29;20219;-77
2023/04/13 12:20:47;;;;;;;3.97;3.00;;;14.70;99.90;;;;;;4912027;29;20217;-77
2023/04/13 12:23:19;;;;;;;4.23;3.00;;;14.90;99.90;;;;;;4912655;29;20515;-77
2023/04/13 12:25:58;;;;;;;4.03;2.60;;;14.90;99.90;;;;;;4913856;29;20204;-77
2023/04/13 12:28:29;;;;;;;6.07;2.83;;;15.20;99.90;;;;;;4915878;29;20220;-77
2023/04/13 12:31:02;;;;;;;3.50;2.20;;;15.40;99.90;;;;;;4912203;29;20211;-77
2023/04/13 12:33:29;;;;;;;4.00;2.20;;;15.50;99.90;;;;;;4909455;29;20231;-78
2023/04/13 12:35:55;;;;;;;3.57;2.40;;;15.40;99.90;;;;;;4915184;29;20204;-76
2023/04/13 12:38:23;;;;;;;3.20;2.70;;;15.20;99.90;;;;;;4910137;29;20227;-77
2023/04/13 12:40:56;;;;;;;3.47;2.40;;;14.80;99.90;;;;;;4913283;29;20267;-77
2023/04/13 12:43:23;;;;;;;4.60;3.50;;;14.30;99.90;;;;;;4914239;29;20227;-77
2023/04/13 12:45:51;;;;;;;6.17;2.50;;;13.30;99.90;;;;;;4913582;29;20218;-75
2023/04/13 12:48:18;;;;;;;5.07;4.67;;;12.30;99.90;;;;;;4913414;29;20246;-76
2023/04/13 12:50:45;;;;;;;7.00;6.50;;;11.60;99.90;;;;;;4916694;29;20201;-77
2023/04/13 12:53:11;;;;;;;7.47;6.97;;;11.10;99.90;;;;;;4913623;29;20671;-77
2023/04/13 12:55:38;;;;;;;8.10;7.50;;;10.60;99.90;;;;;;4910718;29;20667;-77
2023/04/13 12:58:07;;;;;;;7.70;7.10;;;10.30;99.90;;;;;;4918595;29;20721;-77
2023/04/13 13:00:34;;;;;;;7.53;7.03;;;10.30;99.90;;;;;;4914502;29;20199;-77
2023/04/13 13:03:01;;;;;;;7.87;7.37;;;10.50;99.90;;;;;;4914987;29;20679;-76
2023/04/13 13:05:28;;;;;;;7.20;6.70;;;10.80;99.90;;;;;;4911260;29;20252;-76